sensor_id;sensor_type;location;lat;lon;timestamp;pressure;altitude;pressure_sealevel;temperature
29701;BMP280;57917;51.380;-0.176;2023-05-10T00:04:10;100728.59;;;13.50
29701;BMP280;57917;51.380;-0.176;2023-05-10T00:10:00;100731.72;;;13.38
29701;BMP280;57917;51.380;-0.176;2023-05-10T00:15:50;100725.72;;;13.33
29701;BMP280;57917;51.380;-0.176;2023-05-10T00:21:38;100735.41;;;13.24
29701;BMP280;57917;51.380;-0.176;2023-05-10T00:27:25;100739.41;;;13.40
29701;BMP280;57917;51.380;-0.176;2023-05-10T00:33:12;100732.53;;;13.39
29701;BMP280;57917;51.380;-0.176;2023-05-10T00:38:59;100732.84;;;13.51
29701;BMP280;57917;51.380;-0.176;2023-05-10T00:44:49;100745.31;;;13.37
29701;BMP280;57917;51.380;-0.176;2023-05-10T00:50:39;100741.06;;;13.36
29701;BMP280;57917;51.380;-0.176;2023-05-10T00:56:26;100753.81;;;13.39
29701;BMP280;57917;51.380;-0.176;2023-05-10T01:02:18;100756.16;;;13.54
29701;BMP280;57917;51.380;-0.176;2023-05-10T01:08:05;100765.59;;;13.33
29701;BMP280;57917;51.380;-0.176;2023-05-10T01:13:56;100767.31;;;13.24
29701;BMP280;57917;51.380;-0.176;2023-05-10T01:19:45;100766.75;;;13.27
29701;BMP280;57917;51.380;-0.176;2023-05-10T01:37:57;100782.28;;;13.52
29701;BMP280;57917;51.380;-0.176;2023-05-10T01:50:11;100790.34;;;13.47
29701;BMP280;57917;51.380;-0.176;2023-05-10T01:56:03;100784.84;;;13.43
29701;BMP280;57917;51.380;-0.176;2023-05-10T02:01:52;100783.38;;;13.51
29701;BMP280;57917;51.380;-0.176;2023-05-10T02:07:40;100774.97;;;13.44
29701;BMP280;57917;51.380;-0.176;2023-05-10T02:13:29;100785.72;;;13.39
29701;BMP280;57917;51.380;-0.176;2023-05-10T02:19:19;100797.03;;;13.44
29701;BMP280;57917;51.380;-0.176;2023-05-10T02:25:06;100800.25;;;13.41
29701;BMP280;57917;51.380;-0.176;2023-05-10T02:30:55;100800.78;;;13.25
29701;BMP280;57917;51.380;-0.176;2023-05-10T02:36:47;100808.88;;;13.20
29701;BMP280;57917;51.380;-0.176;2023-05-10T02:42:36;100818.03;;;13.09
29701;BMP280;57917;51.380;-0.176;2023-05-10T02:48:23;100821.06;;;13.21
29701;BMP280;57917;51.380;-0.176;2023-05-10T02:54:24;100821.84;;;13.21
29701;BMP280;57917;51.380;-0.176;2023-05-10T03:00:14;100833.41;;;13.30
29701;BMP280;57917;51.380;-0.176;2023-05-10T03:06:02;100838.72;;;13.49
29701;BMP280;57917;51.380;-0.176;2023-05-10T03:12:03;100828.31;;;13.34
29701;BMP280;57917;51.380;-0.176;2023-05-10T03:18:04;100824.19;;;13.41
29701;BMP280;57917;51.380;-0.176;2023-05-10T03:24:02;100825.81;;;13.24
29701;BMP280;57917;51.380;-0.176;2023-05-10T03:29:53;100827.50;;;13.15
29701;BMP280;57917;51.380;-0.176;2023-05-10T03:35:42;100831.19;;;13.19
29701;BMP280;57917;51.380;-0.176;2023-05-10T03:41:30;100836.16;;;13.07
29701;BMP280;57917;51.380;-0.176;2023-05-10T03:47:20;100843.88;;;12.85
29701;BMP280;57917;51.380;-0.176;2023-05-10T03:53:10;100844.72;;;13.04
29701;BMP280;57917;51.380;-0.176;2023-05-10T03:58:58;100856.75;;;12.96
29701;BMP280;57917;51.380;-0.176;2023-05-10T04:04:45;100848.97;;;12.81
29701;BMP280;57917;51.380;-0.176;2023-05-10T04:10:33;100849.09;;;12.71
29701;BMP280;57917;51.380;-0.176;2023-05-10T04:16:20;100847.41;;;12.56
29701;BMP280;57917;51.380;-0.176;2023-05-10T04:22:07;100866.13;;;12.46
29701;BMP280;57917;51.380;-0.176;2023-05-10T04:27:56;100874.09;;;12.70
29701;BMP280;57917;51.380;-0.176;2023-05-10T04:33:43;100871.66;;;12.73
29701;BMP280;57917;51.380;-0.176;2023-05-10T04:39:30;100870.59;;;12.74
29701;BMP280;57917;51.380;-0.176;2023-05-10T04:45:19;100866.16;;;12.41
29701;BMP280;57917;51.380;-0.176;2023-05-10T04:51:06;100872.31;;;12.37
29701;BMP280;57917;51.380;-0.176;2023-05-10T04:56:56;100897.19;;;12.17
29701;BMP280;57917;51.380;-0.176;2023-05-10T05:02:45;100900.25;;;12.29
29701;BMP280;57917;51.380;-0.176;2023-05-10T05:08:32;100914.72;;;12.18
29701;BMP280;57917;51.380;-0.176;2023-05-10T05:14:23;100919.88;;;12.33
29701;BMP280;57917;51.380;-0.176;2023-05-10T05:20:13;100924.53;;;12.46
29701;BMP280;57917;51.380;-0.176;2023-05-10T05:26:06;100927.53;;;12.63
29701;BMP280;57917;51.380;-0.176;2023-05-10T05:31:58;100926.25;;;12.56
29701;BMP280;57917;51.380;-0.176;2023-05-10T05:37:46;100930.25;;;12.82
29701;BMP280;57917;51.380;-0.176;2023-05-10T05:43:33;100939.44;;;12.95
29701;BMP280;57917;51.380;-0.176;2023-05-10T05:49:23;100943.56;;;13.24
29701;BMP280;57917;51.380;-0.176;2023-05-10T05:55:10;100932.78;;;13.34
29701;BMP280;57917;51.380;-0.176;2023-05-10T06:01:00;100936.75;;;13.74
29701;BMP280;57917;51.380;-0.176;2023-05-10T06:06:47;100936.22;;;14.49
29701;BMP280;57917;51.380;-0.176;2023-05-10T06:12:34;100925.13;;;15.24
29701;BMP280;57917;51.380;-0.176;2023-05-10T06:18:21;100915.75;;;15.92
29701;BMP280;57917;51.380;-0.176;2023-05-10T06:24:09;100921.41;;;16.69
29701;BMP280;57917;51.380;-0.176;2023-05-10T06:29:58;100922.06;;;16.35
29701;BMP280;57917;51.380;-0.176;2023-05-10T06:35:58;100933.22;;;15.76
29701;BMP280;57917;51.380;-0.176;2023-05-10T06:41:48;100935.44;;;15.83
29701;BMP280;57917;51.380;-0.176;2023-05-10T06:47:38;100940.22;;;16.16
29701;BMP280;57917;51.380;-0.176;2023-05-10T06:53:30;100927.47;;;16.53
29701;BMP280;57917;51.380;-0.176;2023-05-10T06:59:25;100937.00;;;16.93
29701;BMP280;57917;51.380;-0.176;2023-05-10T07:05:16;100935.44;;;17.26
29701;BMP280;57917;51.380;-0.176;2023-05-10T07:11:09;100932.31;;;17.24
29701;BMP280;57917;51.380;-0.176;2023-05-10T07:17:02;100932.63;;;17.14
29701;BMP280;57917;51.380;-0.176;2023-05-10T07:22:49;100933.28;;;17.19
29701;BMP280;57917;51.380;-0.176;2023-05-10T07:28:36;100942.69;;;17.17
29701;BMP280;57917;51.380;-0.176;2023-05-10T07:34:25;100950.88;;;17.29
29701;BMP280;57917;51.380;-0.176;2023-05-10T07:40:12;100947.88;;;17.56
29701;BMP280;57917;51.380;-0.176;2023-05-10T07:45:59;100952.44;;;17.64
29701;BMP280;57917;51.380;-0.176;2023-05-10T07:51:46;100946.13;;;18.60
29701;BMP280;57917;51.380;-0.176;2023-05-10T07:57:34;100943.19;;;18.74
29701;BMP280;57917;51.380;-0.176;2023-05-10T08:03:25;100946.13;;;19.22
29701;BMP280;57917;51.380;-0.176;2023-05-10T08:09:18;100945.78;;;19.03
29701;BMP280;57917;51.380;-0.176;2023-05-10T08:15:10;100941.75;;;19.50
29701;BMP280;57917;51.380;-0.176;2023-05-10T08:20:57;100946.25;;;20.39
29701;BMP280;57917;51.380;-0.176;2023-05-10T08:26:45;100954.63;;;20.37
29701;BMP280;57917;51.380;-0.176;2023-05-10T08:32:37;100961.13;;;20.00
29701;BMP280;57917;51.380;-0.176;2023-05-10T08:38:24;100964.94;;;20.11
29701;BMP280;57917;51.380;-0.176;2023-05-10T08:44:12;100965.22;;;19.98
29701;BMP280;57917;51.380;-0.176;2023-05-10T08:50:12;100967.25;;;19.44
29701;BMP280;57917;51.380;-0.176;2023-05-10T08:56:05;100964.16;;;19.54
29701;BMP280;57917;51.380;-0.176;2023-05-10T09:01:53;100964.00;;;19.83
29701;BMP280;57917;51.380;-0.176;2023-05-10T09:07:45;100971.56;;;20.26
29701;BMP280;57917;51.380;-0.176;2023-05-10T09:13:35;100981.03;;;20.83
29701;BMP280;57917;51.380;-0.176;2023-05-10T09:19:22;100970.94;;;20.92
29701;BMP280;57917;51.380;-0.176;2023-05-10T09:25:12;100983.31;;;20.57
29701;BMP280;57917;51.380;-0.176;2023-05-10T09:31:03;100984.59;;;20.99
29701;BMP280;57917;51.380;-0.176;2023-05-10T09:37:00;100973.25;;;21.64
29701;BMP280;57917;51.380;-0.176;2023-05-10T09:42:56;100982.69;;;22.01
29701;BMP280;57917;51.380;-0.176;2023-05-10T09:48:45;100988.50;;;21.29
29701;BMP280;57917;51.380;-0.176;2023-05-10T09:54:55;100972.91;;;21.50
29701;BMP280;57917;51.380;-0.176;2023-05-10T10:01:13;100977.47;;;22.08
29701;BMP280;57917;51.380;-0.176;2023-05-10T10:07:02;100987.28;;;22.17
29701;BMP280;57917;51.380;-0.176;2023-05-10T10:12:50;100972.56;;;22.30
29701;BMP280;57917;51.380;-0.176;2023-05-10T10:18:37;100989.75;;;21.90
29701;BMP280;57917;51.380;-0.176;2023-05-10T10:24:25;100975.78;;;22.35
29701;BMP280;57917;51.380;-0.176;2023-05-10T10:36:20;100968.34;;;22.48
29701;BMP280;57917;51.380;-0.176;2023-05-10T10:42:09;100963.06;;;22.36
29701;BMP280;57917;51.380;-0.176;2023-05-10T10:48:22;100968.59;;;21.92
29701;BMP280;57917;51.380;-0.176;2023-05-10T10:54:27;100956.31;;;21.79
29701;BMP280;57917;51.380;-0.176;2023-05-10T11:00:28;100953.22;;;22.78
29701;BMP280;57917;51.380;-0.176;2023-05-10T11:06:28;100933.38;;;23.31
29701;BMP280;57917;51.380;-0.176;2023-05-10T11:12:17;100945.44;;;23.59
29701;BMP280;57917;51.380;-0.176;2023-05-10T11:18:27;100945.09;;;23.61
29701;BMP280;57917;51.380;-0.176;2023-05-10T11:24:22;100935.22;;;23.27
29701;BMP280;57917;51.380;-0.176;2023-05-10T11:30:11;100921.03;;;22.00
29701;BMP280;57917;51.380;-0.176;2023-05-10T11:35:58;100930.31;;;22.72
29701;BMP280;57917;51.380;-0.176;2023-05-10T11:41:48;100920.63;;;22.71
29701;BMP280;57917;51.380;-0.176;2023-05-10T11:47:38;100913.97;;;23.03
29701;BMP280;57917;51.380;-0.176;2023-05-10T11:53:38;100917.44;;;23.26
29701;BMP280;57917;51.380;-0.176;2023-05-10T11:59:28;100916.84;;;23.58
29701;BMP280;57917;51.380;-0.176;2023-05-10T12:05:19;100913.66;;;23.53
29701;BMP280;57917;51.380;-0.176;2023-05-10T12:11:09;100896.75;;;23.11
29701;BMP280;57917;51.380;-0.176;2023-05-10T12:17:15;100901.72;;;22.33
29701;BMP280;57917;51.380;-0.176;2023-05-10T12:23:09;100912.69;;;21.58
29701;BMP280;57917;51.380;-0.176;2023-05-10T12:29:21;100914.09;;;21.09
29701;BMP280;57917;51.380;-0.176;2023-05-10T12:35:10;100917.41;;;21.18
29701;BMP280;57917;51.380;-0.176;2023-05-10T12:41:03;100931.53;;;21.00
29701;BMP280;57917;51.380;-0.176;2023-05-10T12:46:50;100941.66;;;20.91
29701;BMP280;57917;51.380;-0.176;2023-05-10T12:52:38;100945.25;;;21.10
29701;BMP280;57917;51.380;-0.176;2023-05-10T12:58:34;100938.56;;;21.32
29701;BMP280;57917;51.380;-0.176;2023-05-10T13:04:30;100924.16;;;21.55
29701;BMP280;57917;51.380;-0.176;2023-05-10T13:10:20;100912.88;;;21.65
29701;BMP280;57917;51.380;-0.176;2023-05-10T13:16:11;100920.09;;;21.61
29701;BMP280;57917;51.380;-0.176;2023-05-10T13:22:11;100941.84;;;21.41
29701;BMP280;57917;51.380;-0.176;2023-05-10T13:27:58;100982.63;;;20.00
29701;BMP280;57917;51.380;-0.176;2023-05-10T13:33:45;101006.69;;;17.98
29701;BMP280;57917;51.380;-0.176;2023-05-10T13:39:34;101002.53;;;17.38
29701;BMP280;57917;51.380;-0.176;2023-05-10T13:45:24;101018.16;;;16.80
29701;BMP280;57917;51.380;-0.176;2023-05-10T13:51:12;101019.25;;;16.87
29701;BMP280;57917;51.380;-0.176;2023-05-10T13:57:00;101020.78;;;17.36
29701;BMP280;57917;51.380;-0.176;2023-05-10T14:02:49;101025.97;;;18.00
29701;BMP280;57917;51.380;-0.176;2023-05-10T14:08:40;101008.25;;;19.12
29701;BMP280;57917;51.380;-0.176;2023-05-10T14:14:27;100975.50;;;19.72
29701;BMP280;57917;51.380;-0.176;2023-05-10T14:20:18;100962.09;;;19.84
29701;BMP280;57917;51.380;-0.176;2023-05-10T14:26:12;100957.97;;;19.86
29701;BMP280;57917;51.380;-0.176;2023-05-10T14:32:01;100930.78;;;20.00
29701;BMP280;57917;51.380;-0.176;2023-05-10T14:37:52;100915.88;;;19.90
29701;BMP280;57917;51.380;-0.176;2023-05-10T14:43:52;100917.84;;;19.57
29701;BMP280;57917;51.380;-0.176;2023-05-10T14:49:43;100918.72;;;19.17
29701;BMP280;57917;51.380;-0.176;2023-05-10T14:55:30;100920.28;;;18.77
29701;BMP280;57917;51.380;-0.176;2023-05-10T15:01:23;100939.25;;;18.92
29701;BMP280;57917;51.380;-0.176;2023-05-10T15:07:48;100946.56;;;18.33
29701;BMP280;57917;51.380;-0.176;2023-05-10T15:13:38;100954.59;;;18.62
29701;BMP280;57917;51.380;-0.176;2023-05-10T15:19:39;100930.22;;;18.76
29701;BMP280;57917;51.380;-0.176;2023-05-10T15:25:27;100951.09;;;18.04
29701;BMP280;57917;51.380;-0.176;2023-05-10T15:31:21;100950.66;;;18.31
29701;BMP280;57917;51.380;-0.176;2023-05-10T15:37:08;100914.22;;;18.59
29701;BMP280;57917;51.380;-0.176;2023-05-10T15:43:04;100906.50;;;18.37
29701;BMP280;57917;51.380;-0.176;2023-05-10T15:49:22;100921.81;;;17.90
29701;BMP280;57917;51.380;-0.176;2023-05-10T15:55:17;100957.28;;;17.96
29701;BMP280;57917;51.380;-0.176;2023-05-10T16:01:06;100980.44;;;17.07
29701;BMP280;57917;51.380;-0.176;2023-05-10T16:07:04;100998.03;;;16.91
29701;BMP280;57917;51.380;-0.176;2023-05-10T16:12:56;101036.50;;;16.33
29701;BMP280;57917;51.380;-0.176;2023-05-10T16:18:45;101030.19;;;16.29
29701;BMP280;57917;51.380;-0.176;2023-05-10T16:24:39;101007.56;;;16.05
29701;BMP280;57917;51.380;-0.176;2023-05-10T16:30:32;101027.34;;;15.82
29701;BMP280;57917;51.380;-0.176;2023-05-10T16:36:20;101034.72;;;15.85
29701;BMP280;57917;51.380;-0.176;2023-05-10T16:42:19;101039.00;;;15.86
29701;BMP280;57917;51.380;-0.176;2023-05-10T16:48:09;101048.97;;;15.80
29701;BMP280;57917;51.380;-0.176;2023-05-10T16:54:02;101062.13;;;15.99
29701;BMP280;57917;51.380;-0.176;2023-05-10T16:59:58;101070.72;;;15.87
29701;BMP280;57917;51.380;-0.176;2023-05-10T17:05:45;101066.75;;;15.98
29701;BMP280;57917;51.380;-0.176;2023-05-10T17:11:40;101049.84;;;15.89
29701;BMP280;57917;51.380;-0.176;2023-05-10T17:17:41;101055.00;;;16.08
29701;BMP280;57917;51.380;-0.176;2023-05-10T17:23:29;101058.97;;;16.41
29701;BMP280;57917;51.380;-0.176;2023-05-10T17:29:43;101069.78;;;16.58
29701;BMP280;57917;51.380;-0.176;2023-05-10T17:35:32;101057.72;;;16.38
29701;BMP280;57917;51.380;-0.176;2023-05-10T17:41:21;101039.28;;;16.28
29701;BMP280;57917;51.380;-0.176;2023-05-10T17:47:14;101041.44;;;16.26
29701;BMP280;57917;51.380;-0.176;2023-05-10T17:53:30;101034.25;;;16.27
29701;BMP280;57917;51.380;-0.176;2023-05-10T18:08:12;101039.00;;;16.38
29701;BMP280;57917;51.380;-0.176;2023-05-10T18:14:24;101035.63;;;16.47
29701;BMP280;57917;51.380;-0.176;2023-05-10T18:20:48;101022.91;;;16.52
29701;BMP280;57917;51.380;-0.176;2023-05-10T18:26:42;101036.22;;;16.44
29701;BMP280;57917;51.380;-0.176;2023-05-10T18:32:40;101036.50;;;16.33
29701;BMP280;57917;51.380;-0.176;2023-05-10T18:38:30;101045.69;;;16.50
29701;BMP280;57917;51.380;-0.176;2023-05-10T18:44:22;101036.00;;;16.62
29701;BMP280;57917;51.380;-0.176;2023-05-10T18:50:22;101048.00;;;16.42
29701;BMP280;57917;51.380;-0.176;2023-05-10T18:56:39;101055.31;;;16.28
29701;BMP280;57917;51.380;-0.176;2023-05-10T19:02:39;101064.16;;;16.38
29701;BMP280;57917;51.380;-0.176;2023-05-10T19:08:53;101060.22;;;16.35
29701;BMP280;57917;51.380;-0.176;2023-05-10T19:15:03;101064.53;;;16.22
29701;BMP280;57917;51.380;-0.176;2023-05-10T19:21:15;101069.03;;;16.13
29701;BMP280;57917;51.380;-0.176;2023-05-10T19:27:12;101060.50;;;16.11
29701;BMP280;57917;51.380;-0.176;2023-05-10T19:33:06;101076.84;;;16.10
29701;BMP280;57917;51.380;-0.176;2023-05-10T19:39:02;101077.97;;;16.09
29701;BMP280;57917;51.380;-0.176;2023-05-10T19:45:07;101080.38;;;15.97
29701;BMP280;57917;51.380;-0.176;2023-05-10T19:51:07;101093.00;;;16.05
29701;BMP280;57917;51.380;-0.176;2023-05-10T19:57:08;101114.09;;;15.57
29701;BMP280;57917;51.380;-0.176;2023-05-10T20:03:12;101122.09;;;15.57
29701;BMP280;57917;51.380;-0.176;2023-05-10T20:09:20;101130.16;;;14.98
29701;BMP280;57917;51.380;-0.176;2023-05-10T20:15:07;101122.34;;;14.56
29701;BMP280;57917;51.380;-0.176;2023-05-10T20:21:09;101122.00;;;14.95
29701;BMP280;57917;51.380;-0.176;2023-05-10T20:26:59;101114.47;;;15.10
29701;BMP280;57917;51.380;-0.176;2023-05-10T20:33:18;101118.53;;;15.21
29701;BMP280;57917;51.380;-0.176;2023-05-10T20:39:51;101131.69;;;15.31
29701;BMP280;57917;51.380;-0.176;2023-05-10T20:45:39;101116.19;;;15.20
29701;BMP280;57917;51.380;-0.176;2023-05-10T20:51:30;101134.25;;;15.09
29701;BMP280;57917;51.380;-0.176;2023-05-10T20:57:19;101139.16;;;15.02
29701;BMP280;57917;51.380;-0.176;2023-05-10T21:03:30;101138.94;;;15.12
29701;BMP280;57917;51.380;-0.176;2023-05-10T21:09:17;101143.50;;;14.98
29701;BMP280;57917;51.380;-0.176;2023-05-10T21:15:08;101139.66;;;15.04
29701;BMP280;57917;51.380;-0.176;2023-05-10T21:20:58;101150.19;;;14.82
29701;BMP280;57917;51.380;-0.176;2023-05-10T21:27:13;101145.88;;;14.68
29701;BMP280;57917;51.380;-0.176;2023-05-10T21:33:20;101141.69;;;14.80
29701;BMP280;57917;51.380;-0.176;2023-05-10T21:39:16;101136.28;;;14.53
29701;BMP280;57917;51.380;-0.176;2023-05-10T21:45:11;101138.03;;;14.25
29701;BMP280;57917;51.380;-0.176;2023-05-10T21:51:08;101131.03;;;14.11
29701;BMP280;57917;51.380;-0.176;2023-05-10T21:56:55;101120.66;;;13.91
29701;BMP280;57917;51.380;-0.176;2023-05-10T22:09:38;101115.75;;;13.56
29701;BMP280;57917;51.380;-0.176;2023-05-10T22:15:26;101127.81;;;13.48
29701;BMP280;57917;51.380;-0.176;2023-05-10T22:21:20;101119.09;;;13.43
29701;BMP280;57917;51.380;-0.176;2023-05-10T22:27:08;101124.56;;;13.28
29701;BMP280;57917;51.380;-0.176;2023-05-10T22:32:58;101116.44;;;13.19
29701;BMP280;57917;51.380;-0.176;2023-05-10T22:38:47;101124.72;;;13.13
29701;BMP280;57917;51.380;-0.176;2023-05-10T22:44:38;101130.13;;;13.08
29701;BMP280;57917;51.380;-0.176;2023-05-10T22:50:28;101135.16;;;13.04
29701;BMP280;57917;51.380;-0.176;2023-05-10T22:56:22;101118.53;;;12.94
29701;BMP280;57917;51.380;-0.176;2023-05-10T23:02:25;101124.19;;;12.82
29701;BMP280;57917;51.380;-0.176;2023-05-10T23:08:15;101124.81;;;12.74
29701;BMP280;57917;51.380;-0.176;2023-05-10T23:14:02;101129.81;;;12.81
29701;BMP280;57917;51.380;-0.176;2023-05-10T23:20:10;101125.13;;;12.67
29701;BMP280;57917;51.380;-0.176;2023-05-10T23:26:02;101113.47;;;12.63
29701;BMP280;57917;51.380;-0.176;2023-05-10T23:31:51;101122.28;;;12.54
29701;BMP280;57917;51.380;-0.176;2023-05-10T23:37:50;101127.06;;;12.52
29701;BMP280;57917;51.380;-0.176;2023-05-10T23:43:38;101123.69;;;12.46
29701;BMP280;57917;51.380;-0.176;2023-05-10T23:49:27;101112.50;;;12.49
29701;BMP280;57917;51.380;-0.176;2023-05-10T23:55:15;101113.91;;;12.37
